Raisin, California
Current Conditions -  °F | °C
As of 12:53 PM on Tuesday 21 Oct 2014 (Local Time) from KFAT Reporting Station
Scattered Clouds Scattered Clouds  
Wind Chill: 71°   Ceiling: Unl
Heat Index: 71°   Visibility: 10mi
Dew Point: 45°   Wind: 7mph
Humidity: 39%   Direction: 280°W
Pressure: 30.03"   Gusts: NA
Location:  36.6°N, 119.9°W
Report Text: KFAT 211953Z 28006KT 10SM FEW060 FEW180 SCT250 22/07 A3003 RMK AO2 SLP166 HZ FU DSNT NE-SE T02170072
Loading
Personal Weather Stations






























Interactive Weather Map
Tropical Storm Tracking
New forecast layout! Learn more

10-Day Weather Forecast

Advertisements
Track Severe Weather on mobile